Time;durP1;ratioP1;P1;durP2;ratioP2;P2;SDS_P1;SDS_P2;PMS_P1;PMS_P2;Temp;Humidity;BMP_temperature;BMP_pressure;BME280_temperature;BME280_humidity;BME280_pressure;Samples;Min_cycle;Max_cycle;Signal;HPM_P1;HPM_P2
2021/04/24 00:01:59;;;;;;;13.93;8.73;;;10.50;95.50;;;;;;1874976;76;21489;-69
2021/04/24 00:04:28;;;;;;;13.93;8.38;;;10.50;95.50;;;;;;1879761;74;21162;-69
2021/04/24 00:06:55;;;;;;;10.53;6.90;;;10.60;95.50;;;;;;1872444;76;21764;-69
2021/04/24 00:09:23;;;;;;;10.72;6.30;;;10.60;95.50;;;;;;1874531;76;21129;-69
2021/04/24 00:11:50;;;;;;;14.20;6.95;;;10.60;95.50;;;;;;1869151;76;21147;-69
2021/04/24 00:14:18;;;;;;;13.80;6.65;;;10.60;95.40;;;;;;1877748;76;21097;-69
2021/04/24 00:16:45;;;;;;;11.90;5.90;;;10.60;95.40;;;;;;1871848;76;21163;-70
2021/04/24 00:19:14;;;;;;;12.75;6.37;;;10.60;95.40;;;;;;1867389;76;21082;-69
2021/04/24 00:21:41;;;;;;;12.82;5.58;;;10.60;95.40;;;;;;1871160;76;21644;-69
2021/04/24 00:24:09;;;;;;;10.20;5.75;;;10.60;95.50;;;;;;1872506;74;21595;-68
2021/04/24 00:26:37;;;;;;;10.95;5.83;;;10.60;95.50;;;;;;1874291;76;21086;-69
2021/04/24 00:29:05;;;;;;;14.15;6.65;;;10.60;95.50;;;;;;1880694;76;21073;-69
2021/04/24 00:31:33;;;;;;;11.12;6.42;;;10.60;95.50;;;;;;1872010;76;21555;-69
2021/04/24 00:34:00;;;;;;;9.50;5.53;;;10.60;95.90;;;;;;1878069;76;22280;-69
2021/04/24 00:36:28;;;;;;;10.32;5.25;;;10.70;95.70;;;;;;1874337;76;21179;-68
2021/04/24 00:38:55;;;;;;;13.00;5.47;;;10.60;95.80;;;;;;1877678;76;21074;-69
2021/04/24 00:41:23;;;;;;;11.68;5.60;;;10.70;95.80;;;;;;1871948;76;21270;-69
2021/04/24 00:43:51;;;;;;;12.47;5.40;;;10.70;95.70;;;;;;1870273;76;21054;-69
2021/04/24 00:46:18;;;;;;;11.90;5.08;;;10.70;95.70;;;;;;1881485;76;21152;-69
2021/04/24 00:48:46;;;;;;;10.08;5.20;;;10.70;95.70;;;;;;1870226;76;21078;-69
2021/04/24 00:51:14;;;;;;;8.73;5.47;;;10.70;95.80;;;;;;1872367;76;21559;-69
2021/04/24 00:53:41;;;;;;;10.53;4.70;;;10.70;95.80;;;;;;1877934;76;21500;-68
2021/04/24 00:56:09;;;;;;;8.50;4.85;;;10.60;95.80;;;;;;1868799;76;21136;-69
2021/04/24 00:58:37;;;;;;;9.18;4.95;;;10.60;95.90;;;;;;1869290;74;21187;-69
2021/04/24 01:01:05;;;;;;;12.45;6.08;;;10.60;95.90;;;;;;1880469;76;21191;-68
2021/04/24 01:03:32;;;;;;;12.37;5.12;;;10.60;95.90;;;;;;1873496;76;21031;-69
2021/04/24 01:06:01;;;;;;;9.18;5.03;;;10.50;95.90;;;;;;1875371;76;21097;-69
2021/04/24 01:08:28;;;;;;;15.25;5.45;;;10.50;96.10;;;;;;1869382;76;21034;-69
2021/04/24 01:10:56;;;;;;;11.15;6.35;;;10.40;96.20;;;;;;1817561;79;21223;-69
2021/04/24 01:13:23;;;;;;;12.75;5.35;;;10.40;96.30;;;;;;1877085;76;21117;-69
2021/04/24 01:15:51;;;;;;;10.48;5.53;;;10.30;96.50;;;;;;1874308;76;21082;-69
2021/04/24 01:18:19;;;;;;;11.18;5.75;;;10.20;96.90;;;;;;1874159;76;21171;-69
2021/04/24 01:20:47;;;;;;;10.93;6.40;;;10.20;96.70;;;;;;1877243;76;21396;-69
2021/04/24 01:23:15;;;;;;;8.75;5.55;;;10.10;96.80;;;;;;1874401;76;21035;-69
2021/04/24 01:25:44;;;;;;;12.70;6.00;;;10.10;96.80;;;;;;1879385;76;21109;-69
2021/04/24 01:28:12;;;;;;;14.87;6.12;;;10.10;97.30;;;;;;1877033;76;21180;-69
2021/04/24 01:30:42;;;;;;;11.53;5.90;;;10.10;97.00;;;;;;1877064;76;21695;-69
2021/04/24 01:33:12;;;;;;;10.85;5.20;;;10.10;97.00;;;;;;1875365;76;21187;-69
2021/04/24 01:35:42;;;;;;;12.05;5.62;;;10.10;97.10;;;;;;1873048;75;21696;-68
2021/04/24 01:38:10;;;;;;;12.23;6.20;;;10.10;97.00;;;;;;1876697;76;21595;-69
2021/04/24 01:40:38;;;;;;;12.15;6.47;;;10.10;97.10;;;;;;1877361;76;21090;-69
2021/04/24 01:43:06;;;;;;;13.05;6.45;;;10.00;97.30;;;;;;1875389;76;21121;-69
2021/04/24 01:45:35;;;;;;;12.40;5.70;;;9.90;97.50;;;;;;1876973;76;21045;-69
2021/04/24 01:48:05;;;;;;;12.23;6.67;;;9.90;97.80;;;;;;1872101;76;21058;-69
2021/04/24 01:50:34;;;;;;;14.43;6.15;;;9.80;97.80;;;;;;1874119;75;21624;-69
2021/04/24 01:53:05;;;;;;;12.47;6.30;;;9.80;98.10;;;;;;1871761;76;21095;-69
2021/04/24 01:55:35;;;;;;;14.45;6.83;;;9.80;97.90;;;;;;1879116;76;21086;-68
2021/04/24 01:58:04;;;;;;;12.47;6.80;;;9.80;98.10;;;;;;1880501;76;21133;-69
2021/04/24 02:00:35;;;;;;;12.18;7.20;;;9.80;98.10;;;;;;1881359;76;21180;-69
2021/04/24 02:03:05;;;;;;;13.00;6.75;;;9.70;98.30;;;;;;1878027;76;21105;-68
2021/04/24 02:05:33;;;;;;;15.15;7.70;;;9.70;98.50;;;;;;1879001;74;21118;-68
2021/04/24 02:08:06;;;;;;;18.35;7.60;;;9.60;98.90;;;;;;1878760;76;21112;-68
2021/04/24 02:10:35;;;;;;;15.10;7.78;;;9.60;99.10;;;;;;1876922;76;21685;-68
2021/04/24 02:13:06;;;;;;;13.25;7.78;;;9.60;99.10;;;;;;1882986;75;21062;-68
2021/04/24 02:15:33;;;;;;;16.12;7.70;;;9.60;98.90;;;;;;1871862;74;21078;-68
2021/04/24 02:18:01;;;;;;;16.07;8.00;;;9.60;99.10;;;;;;1875110;75;21026;-68
2021/04/24 02:20:28;;;;;;;15.13;8.20;;;9.50;99.10;;;;;;1877279;76;21129;-68
2021/04/24 02:22:56;;;;;;;16.93;8.05;;;9.50;99.20;;;;;;1875389;76;21191;-68
2021/04/24 02:25:24;;;;;;;15.48;8.60;;;9.50;99.30;;;;;;1876823;76;21604;-68
2021/04/24 02:27:52;;;;;;;15.35;8.78;;;9.40;99.70;;;;;;1879369;76;22112;-68
2021/04/24 02:30:21;;;;;;;17.00;8.60;;;9.40;99.80;;;;;;1878853;74;21177;-68
2021/04/24 02:32:50;;;;;;;14.20;8.00;;;9.40;99.80;;;;;;1875390;76;21117;-68
2021/04/24 02:35:23;;;;;;;15.88;7.90;;;9.40;99.90;;;;;;1868980;76;21092;-69
2021/04/24 02:37:50;;;;;;;16.15;8.83;;;9.40;99.90;;;;;;1872885;76;21530;-69
2021/04/24 02:40:21;;;;;;;16.17;8.83;;;9.30;99.90;;;;;;1871409;74;21137;-69
2021/04/24 02:42:49;;;;;;;16.50;8.50;;;9.30;99.90;;;;;;1875309;76;21198;-69
2021/04/24 02:45:37;;;;;;;15.45;8.25;;;9.30;99.90;;;;;;1875885;76;21141;-69
2021/04/24 02:48:05;;;;;;;17.23;8.83;;;9.30;99.90;;;;;;1806631;78;21184;-69
2021/04/24 02:50:33;;;;;;;21.10;9.48;;;9.40;99.90;;;;;;1810878;77;21133;-69
2021/04/24 02:53:01;;;;;;;18.17;9.63;;;9.30;99.90;;;;;;1816917;78;21074;-69
2021/04/24 02:55:28;;;;;;;17.30;9.33;;;9.40;99.90;;;;;;1817508;77;21117;-69
2021/04/24 02:57:56;;;;;;;17.37;9.48;;;9.40;99.90;;;;;;1813616;77;21191;-69
2021/04/24 03:00:25;;;;;;;20.80;9.25;;;9.40;99.90;;;;;;1810627;77;21681;-69
2021/04/24 03:03:07;;;;;;;19.40;10.00;;;9.40;99.90;;;;;;1818653;77;21568;-69
2021/04/24 03:05:37;;;;;;;25.97;10.28;;;9.40;99.90;;;;;;1813458;77;21019;-69
2021/04/24 03:08:06;;;;;;;18.00;10.15;;;9.30;99.90;;;;;;1818161;77;21058;-71
2021/04/24 03:10:35;;;;;;;21.85;9.53;;;9.30;99.90;;;;;;1819723;77;21651;-69
2021/04/24 03:13:03;;;;;;;19.87;9.25;;;9.30;99.90;;;;;;1818293;77;21082;-69
2021/04/24 03:15:31;;;;;;;17.95;8.68;;;9.30;99.90;;;;;;1816125;79;21595;-69
2021/04/24 03:17:59;;;;;;;18.30;9.55;;;9.30;99.90;;;;;;1816732;78;21619;-68
2021/04/24 03:20:26;;;;;;;19.17;10.03;;;9.40;99.90;;;;;;1818016;79;21149;-69
2021/04/24 03:22:54;;;;;;;18.87;9.93;;;9.50;99.90;;;;;;1818648;77;21071;-69
2021/04/24 03:25:21;;;;;;;20.02;9.28;;;9.50;99.90;;;;;;1818270;77;21102;-69
2021/04/24 03:27:49;;;;;;;21.80;9.88;;;9.60;99.90;;;;;;1817572;77;21105;-69
2021/04/24 03:30:17;;;;;;;18.15;9.38;;;9.70;99.90;;;;;;1813568;77;21133;-68
2021/04/24 03:32:44;;;;;;;16.37;8.98;;;9.70;99.90;;;;;;1818170;77;21753;-68
2021/04/24 03:35:12;;;;;;;21.68;9.58;;;9.70;99.90;;;;;;1818216;77;21487;-69
2021/04/24 03:37:39;;;;;;;20.75;9.98;;;9.60;99.90;;;;;;1818383;77;21179;-69
2021/04/24 03:40:09;;;;;;;22.05;9.58;;;9.60;99.90;;;;;;1815088;77;21145;-68
2021/04/24 03:42:36;;;;;;;16.20;9.03;;;9.60;99.90;;;;;;1814731;77;21055;-68
2021/04/24 03:45:17;;;;;;;23.77;9.63;;;9.80;99.90;;;;;;1813416;77;21035;-68
2021/04/24 03:47:34;;;;;;;26.17;9.50;;;9.80;99.90;;;;;;1814081;77;21642;-69
2021/04/24 03:50:02;;;;;;;15.40;9.10;;;9.80;99.90;;;;;;1817759;77;21152;-69
2021/04/24 03:52:29;;;;;;;20.30;8.83;;;9.90;99.90;;;;;;1816245;77;21070;-68
2021/04/24 03:54:57;;;;;;;16.52;9.40;;;9.90;99.90;;;;;;1817944;77;21161;-68
2021/04/24 03:57:24;;;;;;;24.43;9.58;;;9.90;99.90;;;;;;1817572;77;21144;-69
2021/04/24 03:59:52;;;;;;;26.02;9.75;;;9.90;99.90;;;;;;1814329;77;21149;-68
2021/04/24 04:02:19;;;;;;;19.90;9.68;;;9.90;99.90;;;;;;1817290;78;21379;-68
2021/04/24 04:04:47;;;;;;;16.20;8.85;;;9.90;99.90;;;;;;1818407;78;21098;-69
2021/04/24 04:07:14;;;;;;;18.80;9.05;;;9.90;99.90;;;;;;1816570;78;21096;-68
2021/04/24 04:09:42;;;;;;;20.72;9.13;;;9.90;99.90;;;;;;1817455;77;21133;-67
2021/04/24 04:12:10;;;;;;;20.43;9.10;;;9.90;99.90;;;;;;1816165;77;21119;-68
2021/04/24 04:14:37;;;;;;;19.27;9.88;;;9.80;99.90;;;;;;1817158;78;21196;-68
2021/04/24 04:17:05;;;;;;;16.02;8.45;;;9.90;99.90;;;;;;1816609;77;21520;-68
2021/04/24 04:19:32;;;;;;;22.10;8.88;;;9.90;99.90;;;;;;1812119;77;21141;-68
2021/04/24 04:22:00;;;;;;;17.42;8.75;;;9.90;99.90;;;;;;1817082;78;21125;-68
2021/04/24 04:24:27;;;;;;;16.45;8.20;;;9.70;99.90;;;;;;1817814;79;21586;-68
2021/04/24 04:26:55;;;;;;;20.50;8.53;;;9.70;99.90;;;;;;1815448;77;21126;-68
2021/04/24 04:29:22;;;;;;;19.60;8.75;;;9.70;99.90;;;;;;1817849;78;21228;-68
2021/04/24 04:31:51;;;;;;;24.02;9.45;;;9.80;99.90;;;;;;1817364;77;21175;-68
2021/04/24 04:34:18;;;;;;;17.35;8.85;;;9.90;99.90;;;;;;1817940;77;21203;-68
2021/04/24 04:36:46;;;;;;;17.62;9.60;;;9.90;99.90;;;;;;1817964;78;21091;-68
2021/04/24 04:39:13;;;;;;;20.70;8.90;;;9.80;99.90;;;;;;1816621;79;21600;-68
2021/04/24 04:41:41;;;;;;;14.47;8.35;;;9.80;99.90;;;;;;1816312;77;21102;-67
2021/04/24 04:44:08;;;;;;;19.67;9.20;;;9.90;99.90;;;;;;1822262;77;21188;-68
2021/04/24 04:46:36;;;;;;;23.10;9.48;;;9.90;99.90;;;;;;1815918;77;21086;-68
2021/04/24 04:49:04;;;;;;;14.43;8.55;;;9.90;99.90;;;;;;1816483;79;21184;-68
2021/04/24 04:51:31;;;;;;;23.30;9.38;;;9.90;99.90;;;;;;1818548;77;21105;-68
2021/04/24 04:53:59;;;;;;;16.62;9.25;;;9.90;99.90;;;;;;1818450;77;21180;-68
2021/04/24 04:56:27;;;;;;;20.30;9.08;;;9.90;99.90;;;;;;1818612;77;21156;-68
2021/04/24 04:58:54;;;;;;;21.62;10.28;;;9.90;99.90;;;;;;1817665;77;21031;-68
2021/04/24 05:01:27;;;;;;;19.02;9.33;;;9.90;99.90;;;;;;1818303;77;21138;-68
2021/04/24 05:03:54;;;;;;;18.52;9.00;;;9.90;99.90;;;;;;1815507;77;21125;-69
2021/04/24 05:06:22;;;;;;;18.12;9.85;;;9.90;99.90;;;;;;1817760;77;21183;-69
2021/04/24 05:08:49;;;;;;;18.27;9.33;;;9.90;99.90;;;;;;1816569;77;21171;-69
2021/04/24 05:11:17;;;;;;;15.90;8.93;;;9.90;99.90;;;;;;1818814;79;21567;-69
2021/04/24 05:13:44;;;;;;;17.52;10.25;;;9.90;99.90;;;;;;1816056;77;21164;-69
2021/04/24 05:16:12;;;;;;;23.70;9.35;;;9.90;99.90;;;;;;1818764;78;21102;-69
2021/04/24 05:18:39;;;;;;;21.52;9.73;;;9.90;99.90;;;;;;1817790;77;21571;-69
2021/04/24 05:21:07;;;;;;;19.17;9.35;;;9.90;99.90;;;;;;1815929;79;21181;-69
2021/04/24 05:23:34;;;;;;;18.40;9.38;;;9.90;99.90;;;;;;1818305;77;21126;-69
2021/04/24 05:26:02;;;;;;;17.52;9.10;;;10.00;99.90;;;;;;1817494;79;21113;-69
2021/04/24 05:28:29;;;;;;;19.57;9.08;;;10.10;99.90;;;;;;1818028;78;21179;-70
2021/04/24 05:30:58;;;;;;;15.95;8.05;;;10.10;99.90;;;;;;1815804;77;21661;-70
2021/04/24 05:33:25;;;;;;;18.85;9.00;;;10.10;99.90;;;;;;1816896;77;21219;-70
2021/04/24 05:35:53;;;;;;;15.43;8.40;;;10.20;99.90;;;;;;1818495;77;21090;-69
2021/04/24 05:38:20;;;;;;;15.65;8.25;;;10.20;99.90;;;;;;1816607;79;21090;-69
2021/04/24 05:40:48;;;;;;;15.65;8.23;;;10.20;99.90;;;;;;1818706;77;21169;-69
2021/04/24 05:43:15;;;;;;;15.03;7.10;;;10.30;99.90;;;;;;1813091;77;21046;-69
2021/04/24 05:45:43;;;;;;;15.13;7.03;;;10.30;99.90;;;;;;1816414;77;21579;-69
2021/04/24 05:48:11;;;;;;;14.03;6.55;;;10.40;99.90;;;;;;1816630;79;21637;-69
2021/04/24 05:50:38;;;;;;;15.03;7.00;;;10.50;99.90;;;;;;1813451;77;21622;-69
2021/04/24 05:53:06;;;;;;;17.10;6.97;;;10.40;99.90;;;;;;1817633;77;21505;-69
2021/04/24 05:55:33;;;;;;;13.20;6.17;;;10.50;99.90;;;;;;1815812;77;21177;-69
2021/04/24 05:58:01;;;;;;;13.55;6.97;;;10.50;99.90;;;;;;1816392;79;21388;-69
2021/04/24 06:00:28;;;;;;;16.85;7.45;;;10.50;99.90;;;;;;1814406;77;21143;-69
2021/04/24 06:02:56;;;;;;;14.78;6.08;;;10.60;99.90;;;;;;1816195;77;21113;-69
2021/04/24 06:05:23;;;;;;;13.40;6.25;;;10.60;99.90;;;;;;1817876;77;21239;-69
2021/04/24 06:07:51;;;;;;;16.02;7.03;;;10.70;99.90;;;;;;1816729;77;21141;-68
2021/04/24 06:10:20;;;;;;;14.30;6.58;;;10.70;99.90;;;;;;1817964;78;21122;-68
2021/04/24 06:12:49;;;;;;;17.80;6.40;;;10.70;99.90;;;;;;1816718;77;21117;-68
2021/04/24 06:15:19;;;;;;;20.40;7.15;;;10.80;99.90;;;;;;1819736;79;21126;-69
2021/04/24 06:17:47;;;;;;;15.40;6.80;;;10.80;99.90;;;;;;1819007;78;21019;-69
2021/04/24 06:20:15;;;;;;;17.80;6.03;;;10.80;99.90;;;;;;1818340;77;21093;-69
2021/04/24 06:22:43;;;;;;;17.07;6.80;;;10.80;99.30;;;;;;1817896;77;21091;-69
2021/04/24 06:25:13;;;;;;;15.60;6.62;;;10.90;99.40;;;;;;1816996;77;21085;-69
2021/04/24 06:27:40;;;;;;;15.93;6.03;;;10.90;99.40;;;;;;1818494;77;21062;-69
2021/04/24 06:30:09;;;;;;;23.27;7.05;;;10.90;99.20;;;;;;1814794;77;21082;-68
2021/04/24 06:32:37;;;;;;;15.03;6.62;;;11.00;98.50;;;;;;1816254;77;21054;-68
2021/04/24 06:35:06;;;;;;;16.00;6.42;;;11.00;98.30;;;;;;1817677;79;21198;-69
2021/04/24 06:37:34;;;;;;;15.60;6.42;;;11.10;98.40;;;;;;1819041;77;21123;-69
2021/04/24 06:40:03;;;;;;;15.65;5.85;;;11.10;98.10;;;;;;1814151;77;21133;-69
2021/04/24 06:42:30;;;;;;;17.20;6.40;;;11.20;97.90;;;;;;1814546;77;21118;-69
2021/04/24 06:44:58;;;;;;;13.95;6.08;;;11.30;97.60;;;;;;1816566;78;21151;-69
2021/04/24 06:47:26;;;;;;;13.53;6.03;;;11.20;97.30;;;;;;1813420;79;21114;-68
2021/04/24 06:49:53;;;;;;;15.45;5.85;;;11.30;97.40;;;;;;1813908;77;21193;-69
2021/04/24 06:52:21;;;;;;;16.75;6.15;;;11.30;97.20;;;;;;1816733;77;21184;-69
2021/04/24 06:54:48;;;;;;;13.03;5.90;;;11.40;97.20;;;;;;1816866;77;21081;-69
2021/04/24 06:57:16;;;;;;;15.25;5.97;;;11.40;97.10;;;;;;1814137;77;21479;-70
2021/04/24 06:59:44;;;;;;;19.62;6.15;;;11.50;97.00;;;;;;1815821;79;21584;-67
2021/04/24 07:02:12;;;;;;;14.35;6.20;;;11.50;97.00;;;;;;1817801;77;21223;-70
2021/04/24 07:04:40;;;;;;;18.37;5.62;;;11.50;96.80;;;;;;1816044;79;21131;-70
2021/04/24 07:07:09;;;;;;;15.70;5.75;;;11.60;97.40;;;;;;1812682;77;21133;-68
2021/04/24 07:09:37;;;;;;;13.18;4.92;;;11.50;97.20;;;;;;1815559;77;21628;-67
2021/04/24 07:12:06;;;;;;;15.32;5.70;;;11.50;96.90;;;;;;1815180;77;21097;-68
2021/04/24 07:14:34;;;;;;;18.15;5.50;;;11.60;97.10;;;;;;1815777;77;21627;-67
2021/04/24 07:17:02;;;;;;;14.25;5.53;;;11.70;97.20;;;;;;1817781;77;21122;-67
2021/04/24 07:19:29;;;;;;;16.67;4.95;;;11.80;96.70;;;;;;1819240;77;21224;-68
2021/04/24 07:21:57;;;;;;;17.60;5.08;;;11.90;96.70;;;;;;1816411;77;21166;-67
2021/04/24 07:24:24;;;;;;;16.35;5.37;;;12.00;96.10;;;;;;1814874;77;21248;-70
2021/04/24 07:26:52;;;;;;;15.85;4.80;;;11.90;95.80;;;;;;1818641;79;21094;-68
2021/04/24 07:29:19;;;;;;;14.10;5.00;;;12.00;95.60;;;;;;1818214;77;21135;-68
2021/04/24 07:31:47;;;;;;;19.65;5.35;;;12.00;95.50;;;;;;1816768;79;21564;-68
2021/04/24 07:34:14;;;;;;;12.78;4.25;;;12.00;95.90;;;;;;1815042;77;21067;-68
2021/04/24 07:36:42;;;;;;;15.48;5.25;;;12.10;95.90;;;;;;1817685;77;21208;-67
2021/04/24 07:39:09;;;;;;;17.37;5.00;;;12.20;95.80;;;;;;1816959;78;21050;-67
2021/04/24 07:41:37;;;;;;;15.00;5.20;;;12.20;95.20;;;;;;1819381;78;21525;-68
2021/04/24 07:44:05;;;;;;;16.85;5.15;;;12.20;95.10;;;;;;1817364;78;21580;-68
2021/04/24 07:46:32;;;;;;;16.30;4.83;;;12.30;95.70;;;;;;1815910;78;21090;-68
2021/04/24 07:49:00;;;;;;;16.67;4.75;;;12.40;95.30;;;;;;1814763;78;21519;-68
2021/04/24 07:51:27;;;;;;;19.37;4.78;;;12.50;94.70;;;;;;1813258;79;21136;-67
2021/04/24 07:53:55;;;;;;;14.40;5.03;;;12.40;94.80;;;;;;1814489;78;21162;-68
2021/04/24 07:56:22;;;;;;;12.95;4.87;;;12.50;95.00;;;;;;1816051;77;21117;-68
2021/04/24 07:58:50;;;;;;;16.17;5.08;;;12.60;95.20;;;;;;1818764;77;21089;-68
2021/04/24 08:01:17;;;;;;;16.90;4.78;;;12.50;94.50;;;;;;1815900;79;21082;-68
2021/04/24 08:03:46;;;;;;;13.50;5.10;;;12.60;94.30;;;;;;1815960;78;21113;-68
2021/04/24 08:06:14;;;;;;;12.13;4.83;;;12.60;94.60;;;;;;1814755;79;21207;-67
2021/04/24 08:08:41;;;;;;;15.78;4.72;;;12.70;94.10;;;;;;1815053;77;21112;-67
2021/04/24 08:11:09;;;;;;;12.73;4.30;;;12.70;94.40;;;;;;1815729;78;21599;-67
2021/04/24 08:13:36;;;;;;;16.05;3.92;;;12.80;94.40;;;;;;1817104;78;21094;-68
2021/04/24 08:16:04;;;;;;;12.68;4.47;;;12.90;93.10;;;;;;1813827;77;21195;-68
2021/04/24 08:18:32;;;;;;;12.18;3.95;;;12.90;92.70;;;;;;1814442;77;21133;-67
2021/04/24 08:20:59;;;;;;;12.33;4.12;;;12.90;93.30;;;;;;1815921;79;22086;-67
2021/04/24 08:23:27;;;;;;;16.65;4.08;;;12.90;93.30;;;;;;1817170;77;21191;-68
2021/04/24 08:25:54;;;;;;;12.65;4.00;;;12.90;92.90;;;;;;1818217;77;21172;-67
2021/04/24 08:28:22;;;;;;;13.53;4.08;;;13.00;92.80;;;;;;1818458;78;21117;-67
2021/04/24 08:30:49;;;;;;;15.00;4.60;;;13.00;92.30;;;;;;1815747;78;21161;-67
2021/04/24 08:33:17;;;;;;;18.37;4.25;;;13.00;92.50;;;;;;1817310;77;21111;-68
2021/04/24 08:35:44;;;;;;;12.43;3.70;;;13.00;91.90;;;;;;1818853;77;21148;-68
2021/04/24 08:38:12;;;;;;;12.80;3.75;;;13.00;91.00;;;;;;1818758;79;21156;-67
2021/04/24 08:40:39;;;;;;;15.45;3.55;;;13.00;92.20;;;;;;1818693;77;21589;-67
2021/04/24 08:43:07;;;;;;;10.20;3.37;;;13.10;92.00;;;;;;1818966;79;21144;-68
2021/04/24 08:45:36;;;;;;;17.35;4.33;;;13.20;91.70;;;;;;1818757;79;21094;-68
2021/04/24 08:48:04;;;;;;;14.35;3.70;;;13.30;91.80;;;;;;1819835;79;21156;-68
2021/04/24 08:50:33;;;;;;;14.10;3.72;;;13.30;90.70;;;;;;1819687;79;21556;-68
2021/04/24 08:53:01;;;;;;;12.47;3.30;;;13.40;89.40;;;;;;1819778;79;21038;-68
2021/04/24 08:55:38;;;;;;;16.25;4.35;;;13.40;87.50;;;;;;1819501;79;21587;-68
2021/04/24 08:58:07;;;;;;;13.68;4.42;;;13.40;87.40;;;;;;1818813;79;21607;-68
2021/04/24 09:00:38;;;;;;;14.33;3.35;;;13.50;88.20;;;;;;1818344;79;21211;-69
2021/04/24 09:03:11;;;;;;;10.93;3.27;;;13.60;87.10;;;;;;1818825;79;21119;-69
2021/04/24 09:05:39;;;;;;;12.13;3.20;;;13.50;85.90;;;;;;1817811;78;21117;-69
2021/04/24 09:08:09;;;;;;;14.38;2.95;;;13.50;85.90;;;;;;1817398;79;21132;-69
2021/04/24 09:10:42;;;;;;;15.75;3.15;;;13.50;86.10;;;;;;1818744;79;22143;-68
2021/04/24 09:13:11;;;;;;;10.15;2.83;;;13.70;86.50;;;;;;1818260;77;21529;-68
2021/04/24 09:15:38;;;;;;;12.03;3.35;;;13.80;85.50;;;;;;1818796;77;21073;-68
2021/04/24 09:18:08;;;;;;;14.63;3.52;;;13.80;85.80;;;;;;1819279;78;21144;-69
2021/04/24 09:20:48;;;;;;;10.45;2.85;;;13.90;86.00;;;;;;1819156;79;21548;-68
2021/04/24 09:23:18;;;;;;;12.78;2.85;;;14.10;84.30;;;;;;1818555;78;21126;-68
2021/04/24 09:25:51;;;;;;;14.03;3.50;;;14.00;83.70;;;;;;1816694;79;21128;-68
2021/04/24 09:28:30;;;;;;;17.12;3.17;;;14.10;83.60;;;;;;1817057;77;21560;-68
2021/04/24 09:30:59;;;;;;;15.03;2.65;;;14.10;82.50;;;;;;1818720;77;21122;-68
2021/04/24 09:33:35;;;;;;;10.80;2.42;;;14.00;81.90;;;;;;1818633;77;21135;-68
2021/04/24 09:36:03;;;;;;;13.78;2.70;;;14.00;80.30;;;;;;1817759;77;21117;-68
2021/04/24 09:38:36;;;;;;;9.50;2.70;;;14.10;81.90;;;;;;1817763;77;21098;-68
2021/04/24 09:41:18;;;;;;;14.03;2.90;;;14.20;81.20;;;;;;1818602;77;21215;-68
2021/04/24 09:44:05;;;;;;;16.87;3.02;;;14.30;80.40;;;;;;1813293;77;21145;-66
2021/04/24 09:46:39;;;;;;;13.28;2.87;;;14.20;80.30;;;;;;1816067;77;21127;-67
2021/04/24 09:49:11;;;;;;;11.70;3.42;;;14.10;81.00;;;;;;1814237;77;21125;-67
2021/04/24 09:51:48;;;;;;;13.68;2.92;;;14.10;80.10;;;;;;1816515;77;21043;-67
2021/04/24 09:54:17;;;;;;;11.20;2.50;;;14.10;80.40;;;;;;1817853;77;21098;-67
2021/04/24 09:57:00;;;;;;;9.65;2.75;;;14.10;82.30;;;;;;1817345;77;21142;-66
2021/04/24 09:59:27;;;;;;;;;;;14.20;80.70;;;;;;1818778;77;21251;-67
2021/04/24 10:02:01;;;;;;;13.40;2.85;;;14.10;79.80;;;;;;1818577;77;20232;-67
2021/04/24 10:04:30;;;;;;;8.45;2.33;;;14.20;80.10;;;;;;1814597;77;21522;-68
2021/04/24 10:06:58;;;;;;;10.40;2.77;;;14.20;79.60;;;;;;1817693;77;21113;-68
2021/04/24 10:09:32;;;;;;;13.00;2.72;;;14.20;78.90;;;;;;1819175;77;21568;-66
2021/04/24 10:12:08;;;;;;;10.78;2.67;;;14.30;79.60;;;;;;1817532;77;21050;-67
2021/04/24 10:14:48;;;;;;;11.57;2.52;;;14.30;80.70;;;;;;1816756;77;21034;-68
2021/04/24 10:17:18;;;;;;;10.78;2.25;;;14.40;78.80;;;;;;1817641;77;21046;-67
2021/04/24 10:19:49;;;;;;;11.78;2.80;;;14.40;78.00;;;;;;1816810;77;21664;-68
2021/04/24 10:22:19;;;;;;;8.08;2.47;;;14.40;77.40;;;;;;1816958;77;21104;-67
2021/04/24 10:24:47;;;;;;;8.53;2.30;;;14.50;77.00;;;;;;1819517;77;21055;-68
2021/04/24 10:27:16;;;;;;;8.88;2.60;;;14.40;76.20;;;;;;1819819;78;21007;-68
2021/04/24 10:29:45;;;;;;;12.10;3.77;;;14.40;76.40;;;;;;1819561;79;21082;-68
2021/04/24 10:32:13;;;;;;;8.13;2.33;;;14.50;75.10;;;;;;1816313;79;21089;-68
2021/04/24 10:34:41;;;;;;;10.35;2.80;;;14.50;73.90;;;;;;1813932;77;21095;-68
2021/04/24 10:37:10;;;;;;;13.10;2.33;;;14.60;76.80;;;;;;1818515;77;21047;-68
2021/04/24 10:39:41;;;;;;;7.78;2.05;;;14.70;75.00;;;;;;1814076;77;21081;-67
2021/04/24 10:42:25;;;;;;;7.47;1.98;;;14.90;78.60;;;;;;1876389;73;21619;-64
2021/04/24 10:44:59;;;;;;;6.17;1.60;;;15.20;75.00;;;;;;1889520;74;21150;-63
2021/04/24 10:47:43;;;;;;;10.28;2.10;;;15.30;71.70;;;;;;1894243;74;21086;-65
2021/04/24 10:50:16;;;;;;;10.48;1.80;;;15.30;72.40;;;;;;1884959;74;21157;-64
2021/04/24 10:52:45;;;;;;;8.88;1.90;;;15.50;72.20;;;;;;1909576;73;21367;-63
2021/04/24 10:55:19;;;;;;;8.75;2.22;;;15.70;72.70;;;;;;1916639;73;21095;-65
2021/04/24 10:57:52;;;;;;;5.17;1.52;;;15.90;74.50;;;;;;1909307;73;21075;-65
2021/04/24 11:00:25;;;;;;;9.80;1.95;;;16.10;72.90;;;;;;1916283;73;21052;-65
2021/04/24 11:02:57;;;;;;;4.40;1.50;;;16.20;72.60;;;;;;1910103;73;21164;-65
2021/04/24 11:05:30;;;;;;;5.85;1.72;;;16.30;68.20;;;;;;1917326;73;21197;-65
2021/04/24 11:08:24;;;;;;;6.40;1.65;;;16.40;67.80;;;;;;1916019;73;21180;-63
2021/04/24 11:11:01;;;;;;;9.73;1.80;;;16.30;68.50;;;;;;1912251;73;21642;-66
2021/04/24 11:13:32;;;;;;;6.85;1.40;;;16.40;67.70;;;;;;1907069;73;21588;-66
2021/04/24 11:16:05;;;;;;;7.50;1.82;;;16.60;67.40;;;;;;1916948;73;21052;-66
2021/04/24 11:18:35;;;;;;;7.42;1.65;;;16.70;67.00;;;;;;1911528;73;21115;-65
2021/04/24 11:21:03;;;;;;;;;;;16.60;67.80;;;;;;1920482;73;21115;-66
2021/04/24 11:23:39;;;;;;;5.80;1.90;;;16.60;63.50;;;;;;1912791;73;20203;-65
2021/04/24 11:26:08;;;;;;;9.13;1.65;;;16.80;68.90;;;;;;1910293;73;21516;-67
2021/04/24 11:28:38;;;;;;;6.80;1.05;;;17.00;65.00;;;;;;1915543;73;21600;-68
2021/04/24 11:31:07;;;;;;;6.22;1.70;;;16.90;60.80;;;;;;1887662;73;21074;-66
2021/04/24 11:33:42;;;;;;;4.83;1.27;;;16.70;62.20;;;;;;1915655;73;21102;-67
2021/04/24 11:39:04;;;;;;;11.75;1.60;;;16.90;64.90;;;;;;1914063;73;21634;-67
2021/04/24 12:17:56;;;;;;;11.08;1.52;;;18.00;62.90;;;;;;1935411;73;24641;-67
2021/04/24 12:20:27;;;;;;;6.70;1.22;;;19.00;61.50;;;;;;1897723;73;21020;-67
2021/04/24 12:22:56;;;;;;;6.62;1.37;;;19.50;59.20;;;;;;1875450;75;21125;-68
2021/04/24 12:25:26;;;;;;;6.95;1.50;;;19.80;58.80;;;;;;1878936;75;21117;-70
2021/04/24 12:27:55;;;;;;;7.05;1.55;;;20.40;56.40;;;;;;1878224;75;21094;-68
2021/04/24 12:30:26;;;;;;;7.37;1.30;;;21.00;56.40;;;;;;1878062;75;21121;-71
2021/04/24 12:33:10;;;;;;;6.92;1.30;;;21.10;58.00;;;;;;1879810;75;21156;-70
2021/04/24 12:35:41;;;;;;;4.72;1.25;;;21.30;55.70;;;;;;1871644;75;21105;-71
2021/04/24 12:38:21;;;;;;;6.83;1.40;;;22.20;53.90;;;;;;1877994;75;21049;-69
2021/04/24 12:40:54;;;;;;;7.53;1.32;;;21.80;54.80;;;;;;1874933;75;21203;-66
2021/04/24 12:43:34;;;;;;;5.35;1.50;;;21.80;53.10;;;;;;1880666;75;21101;-69
2021/04/24 12:46:04;;;;;;;5.62;1.65;;;22.10;52.20;;;;;;1875624;75;22132;-68
2021/04/24 12:48:37;;;;;;;8.03;1.27;;;22.70;50.80;;;;;;1877691;75;21163;-69
2021/04/24 12:51:05;;;;;;;4.83;1.15;;;22.10;49.80;;;;;;1875232;75;21191;-69
2021/04/24 12:53:38;;;;;;;6.25;1.30;;;22.60;50.70;;;;;;1873487;75;21584;-69
2021/04/24 12:56:06;;;;;;;5.28;1.10;;;22.40;50.80;;;;;;1877784;75;21080;-69
2021/04/24 12:58:37;;;;;;;5.80;1.45;;;22.50;51.20;;;;;;1877227;75;21133;-69
2021/04/24 13:01:12;;;;;;;6.05;1.45;;;23.00;51.40;;;;;;1876636;75;21175;-69
2021/04/24 13:03:41;;;;;;;3.72;1.20;;;23.10;48.50;;;;;;1870847;75;21169;-67
2021/04/24 13:06:23;;;;;;;3.65;1.10;;;23.20;47.90;;;;;;1876181;75;21426;-68
2021/04/24 13:09:08;;;;;;;4.15;1.10;;;23.30;48.90;;;;;;1876613;74;21424;-68
2021/04/24 13:11:41;;;;;;;3.40;0.90;;;23.30;46.90;;;;;;1875726;74;21130;-67
2021/04/24 13:14:17;;;;;;;5.17;1.15;;;22.70;48.30;;;;;;1878366;74;21102;-67
2021/04/24 13:16:45;;;;;;;3.67;1.20;;;22.10;50.00;;;;;;1876542;75;21145;-68
2021/04/24 13:19:13;;;;;;;2.80;0.85;;;21.80;48.90;;;;;;1872943;75;21156;-69
2021/04/24 13:21:47;;;;;;;7.03;3.42;;;21.30;50.80;;;;;;1881457;75;21176;-70
2021/04/24 13:24:19;;;;;;;6.58;2.65;;;21.40;49.80;;;;;;1871746;75;21179;-70
2021/04/24 13:26:55;;;;;;;3.77;1.10;;;21.30;50.30;;;;;;1873926;75;21148;-69
2021/04/24 13:29:26;;;;;;;6.22;1.45;;;20.80;51.20;;;;;;1873817;75;21167;-71
2021/04/24 13:32:03;;;;;;;4.10;1.17;;;20.50;51.70;;;;;;1878603;75;21109;-68
2021/04/24 13:34:33;;;;;;;4.97;1.42;;;20.10;50.60;;;;;;1870436;75;21113;-69